To NAV CANADA Home Page Login to a new session Search on AWWS site Feedback and Comments Disclaimer Vers la page française équivalente Tips FAQ What's new on the site To the Forecasts and Observations / NOTAM section To "File a Flight Plan" website Publications and other links Update of the User's profile FIC Telephone Numbers My Weather Data Folder Route Weather Data Regional Weather Data Local Weather Data To the Forecasts and Observations / NOTAM section
Request Generated 02/07/2016 at 08:09:07 UTC . Weather information available at that time is displayed.

METAR/TAF

ROBERVAL/QC    

METAR CYRJ 070800Z 29016G24KT 25SM FEW025 M15/M22 A2998 RMK SC1
PRESRR SLP169=
METAR CYRJ 070700Z 31014G20KT 25SM FEW012 M12/M16 A2993 RMK SF1
PRESRR SLP151=
METAR CYRJ 070600Z CCA 27013KT 20SM DRSN SCT035 M10/M17 A2988 RMK SC4
SLP134=
METAR CYRJ 070600Z 27013KT 20SM SCT035 M10/M17 A2988 RMK SC4 SLP134=

*** REMARK        : Forecast period has ended; this was the last TAF issued
*** REMARQUE : La période de prévision est échue; ceci était le dernier TAF qui a été émis
TAF AMD CYRJ 070127Z 0701/0703 22012G22KT 1/8SM +SHSN VV002 TEMPO
0701/0702 5SM -SN OVC025
FM070200 22012KT 11/2SM -SHSN OVC015 TEMPO 0702/0703 3SM -SN
OVC025 PROB30 0702/0703 1/2SM SHSN BLSN VV005
RMK NXT FCST WILL BE ISSUED AT 071245Z=
Your time UTC time
Weather data provided by Environment Canada and NAV CANADA